sensor_id;sensor_type;location;lat;lon;timestamp;temperature;humidity
52036;DHT22;38046;49.448;32.074;2022-10-23T00:00:30;13.50;80.40
52036;DHT22;38046;49.448;32.074;2022-10-23T00:02:56;13.50;80.40
52036;DHT22;38046;49.448;32.074;2022-10-23T00:05:24;13.50;80.40
52036;DHT22;38046;49.448;32.074;2022-10-23T00:07:51;13.50;80.50
52036;DHT22;38046;49.448;32.074;2022-10-23T00:10:18;13.50;80.40
52036;DHT22;38046;49.448;32.074;2022-10-23T00:12:44;13.50;80.50
52036;DHT22;38046;49.448;32.074;2022-10-23T00:15:11;13.50;80.50
52036;DHT22;38046;49.448;32.074;2022-10-23T00:17:36;13.50;80.50
52036;DHT22;38046;49.448;32.074;2022-10-23T00:20:04;13.50;80.50
52036;DHT22;38046;49.448;32.074;2022-10-23T00:22:30;13.50;80.60
52036;DHT22;38046;49.448;32.074;2022-10-23T00:24:55;13.50;80.70
52036;DHT22;38046;49.448;32.074;2022-10-23T00:27:21;13.50;80.70
52036;DHT22;38046;49.448;32.074;2022-10-23T00:29:47;13.50;80.70
52036;DHT22;38046;49.448;32.074;2022-10-23T00:32:12;13.50;80.70
52036;DHT22;38046;49.448;32.074;2022-10-23T00:34:38;13.50;80.70
52036;DHT22;38046;49.448;32.074;2022-10-23T00:37:03;13.50;80.90
52036;DHT22;38046;49.448;32.074;2022-10-23T00:39:29;13.50;80.90
52036;DHT22;38046;49.448;32.074;2022-10-23T00:41:55;13.50;80.80
52036;DHT22;38046;49.448;32.074;2022-10-23T00:46:46;13.60;81.10
52036;DHT22;38046;49.448;32.074;2022-10-23T00:49:12;13.60;81.10
52036;DHT22;38046;49.448;32.074;2022-10-23T00:51:45;13.60;81.10
52036;DHT22;38046;49.448;32.074;2022-10-23T00:54:13;13.60;81.20
52036;DHT22;38046;49.448;32.074;2022-10-23T00:56:43;13.60;81.20
52036;DHT22;38046;49.448;32.074;2022-10-23T00:59:09;13.60;81.30
52036;DHT22;38046;49.448;32.074;2022-10-23T01:01:35;13.60;81.40
52036;DHT22;38046;49.448;32.074;2022-10-23T01:04:02;13.60;81.30
52036;DHT22;38046;49.448;32.074;2022-10-23T01:06:39;13.60;81.40
52036;DHT22;38046;49.448;32.074;2022-10-23T01:09:36;13.60;81.40
52036;DHT22;38046;49.448;32.074;2022-10-23T01:15:28;13.60;81.40
52036;DHT22;38046;49.448;32.074;2022-10-23T01:20:45;13.60;81.80
52036;DHT22;38046;49.448;32.074;2022-10-23T01:23:32;13.50;81.70
52036;DHT22;38046;49.448;32.074;2022-10-23T01:31:42;13.50;81.90
52036;DHT22;38046;49.448;32.074;2022-10-23T01:34:20;13.60;82.70
52036;DHT22;38046;49.448;32.074;2022-10-23T01:36:48;13.60;82.30
52036;DHT22;38046;49.448;32.074;2022-10-23T01:39:42;13.50;82.10
52036;DHT22;38046;49.448;32.074;2022-10-23T01:42:11;13.60;82.20
52036;DHT22;38046;49.448;32.074;2022-10-23T01:47:26;13.60;82.00
52036;DHT22;38046;49.448;32.074;2022-10-23T01:49:53;13.60;82.20
52036;DHT22;38046;49.448;32.074;2022-10-23T01:52:20;13.60;82.30
52036;DHT22;38046;49.448;32.074;2022-10-23T01:54:47;13.50;82.20
52036;DHT22;38046;49.448;32.074;2022-10-23T01:57:16;13.60;82.30
52036;DHT22;38046;49.448;32.074;2022-10-23T01:59:50;13.50;82.30
52036;DHT22;38046;49.448;32.074;2022-10-23T02:02:17;13.60;83.00
52036;DHT22;38046;49.448;32.074;2022-10-23T02:05:14;13.50;82.30
52036;DHT22;38046;49.448;32.074;2022-10-23T02:07:41;13.60;82.30
52036;DHT22;38046;49.448;32.074;2022-10-23T02:10:08;13.60;82.40
52036;DHT22;38046;49.448;32.074;2022-10-23T02:12:54;13.60;82.50
52036;DHT22;38046;49.448;32.074;2022-10-23T02:15:38;13.60;82.40
52036;DHT22;38046;49.448;32.074;2022-10-23T02:18:14;13.50;82.40
52036;DHT22;38046;49.448;32.074;2022-10-23T02:20:46;13.60;82.50
52036;DHT22;38046;49.448;32.074;2022-10-23T02:26:03;13.60;82.70
52036;DHT22;38046;49.448;32.074;2022-10-23T02:28:37;13.60;82.60
52036;DHT22;38046;49.448;32.074;2022-10-23T02:31:07;13.60;82.80
52036;DHT22;38046;49.448;32.074;2022-10-23T02:33:35;13.60;82.70
52036;DHT22;38046;49.448;32.074;2022-10-23T02:36:01;13.60;82.80
52036;DHT22;38046;49.448;32.074;2022-10-23T02:38:36;13.60;82.70
52036;DHT22;38046;49.448;32.074;2022-10-23T02:41:39;13.60;82.80
52036;DHT22;38046;49.448;32.074;2022-10-23T02:49:28;13.60;82.90
52036;DHT22;38046;49.448;32.074;2022-10-23T02:55:15;13.50;82.90
52036;DHT22;38046;49.448;32.074;2022-10-23T03:00:18;13.60;83.20
52036;DHT22;38046;49.448;32.074;2022-10-23T03:02:55;13.60;83.10
52036;DHT22;38046;49.448;32.074;2022-10-23T03:05:26;13.60;83.20
52036;DHT22;38046;49.448;32.074;2022-10-23T03:07:52;13.60;83.20
52036;DHT22;38046;49.448;32.074;2022-10-23T03:10:18;13.60;83.40
52036;DHT22;38046;49.448;32.074;2022-10-23T03:12:44;13.60;83.30
52036;DHT22;38046;49.448;32.074;2022-10-23T03:15:12;13.60;83.40
52036;DHT22;38046;49.448;32.074;2022-10-23T03:17:37;13.60;83.50
52036;DHT22;38046;49.448;32.074;2022-10-23T03:20:05;13.50;83.40
52036;DHT22;38046;49.448;32.074;2022-10-23T03:22:30;13.60;83.50
52036;DHT22;38046;49.448;32.074;2022-10-23T03:24:56;13.50;83.50
52036;DHT22;38046;49.448;32.074;2022-10-23T03:27:22;13.60;83.60
52036;DHT22;38046;49.448;32.074;2022-10-23T03:29:48;13.60;83.70
52036;DHT22;38046;49.448;32.074;2022-10-23T03:32:13;13.60;83.80
52036;DHT22;38046;49.448;32.074;2022-10-23T03:34:39;13.60;84.00
52036;DHT22;38046;49.448;32.074;2022-10-23T03:37:05;13.60;84.00
52036;DHT22;38046;49.448;32.074;2022-10-23T03:39:30;13.50;83.90
52036;DHT22;38046;49.448;32.074;2022-10-23T03:41:56;13.50;83.90
52036;DHT22;38046;49.448;32.074;2022-10-23T03:44:22;13.50;84.00
52036;DHT22;38046;49.448;32.074;2022-10-23T03:46:47;13.60;84.10
52036;DHT22;38046;49.448;32.074;2022-10-23T03:49:13;13.60;84.10
52036;DHT22;38046;49.448;32.074;2022-10-23T03:51:38;13.50;84.10
52036;DHT22;38046;49.448;32.074;2022-10-23T03:54:07;13.60;84.20
52036;DHT22;38046;49.448;32.074;2022-10-23T03:56:33;13.60;84.30
52036;DHT22;38046;49.448;32.074;2022-10-23T03:58:58;13.60;84.30
52036;DHT22;38046;49.448;32.074;2022-10-23T04:01:24;13.60;84.40
52036;DHT22;38046;49.448;32.074;2022-10-23T04:03:50;13.60;84.50
52036;DHT22;38046;49.448;32.074;2022-10-23T04:06:16;13.60;84.50
52036;DHT22;38046;49.448;32.074;2022-10-23T04:08:43;13.60;84.50
52036;DHT22;38046;49.448;32.074;2022-10-23T04:11:09;13.60;84.50
52036;DHT22;38046;49.448;32.074;2022-10-23T04:13:35;13.60;84.70
52036;DHT22;38046;49.448;32.074;2022-10-23T04:16:00;13.60;84.70
52036;DHT22;38046;49.448;32.074;2022-10-23T04:18:26;13.50;84.70
52036;DHT22;38046;49.448;32.074;2022-10-23T04:20:52;13.60;84.70
52036;DHT22;38046;49.448;32.074;2022-10-23T04:23:17;13.60;84.70
52036;DHT22;38046;49.448;32.074;2022-10-23T04:25:43;13.60;84.70
52036;DHT22;38046;49.448;32.074;2022-10-23T04:28:09;13.60;84.80
52036;DHT22;38046;49.448;32.074;2022-10-23T04:30:34;13.60;84.80
52036;DHT22;38046;49.448;32.074;2022-10-23T04:33:00;13.60;84.80
52036;DHT22;38046;49.448;32.074;2022-10-23T04:35:26;13.60;85.00
52036;DHT22;38046;49.448;32.074;2022-10-23T04:37:51;13.60;85.00
52036;DHT22;38046;49.448;32.074;2022-10-23T04:40:17;13.60;85.00
52036;DHT22;38046;49.448;32.074;2022-10-23T04:42:42;13.60;85.00
52036;DHT22;38046;49.448;32.074;2022-10-23T04:45:08;13.60;84.90
52036;DHT22;38046;49.448;32.074;2022-10-23T04:47:34;13.60;85.00
52036;DHT22;38046;49.448;32.074;2022-10-23T04:50:00;13.60;85.00
52036;DHT22;38046;49.448;32.074;2022-10-23T04:52:25;13.60;85.20
52036;DHT22;38046;49.448;32.074;2022-10-23T04:54:51;13.60;85.30
52036;DHT22;38046;49.448;32.074;2022-10-23T04:57:16;13.60;85.30
52036;DHT22;38046;49.448;32.074;2022-10-23T04:59:42;13.60;85.30
52036;DHT22;38046;49.448;32.074;2022-10-23T05:02:08;13.60;85.40
52036;DHT22;38046;49.448;32.074;2022-10-23T05:04:33;13.60;85.50
52036;DHT22;38046;49.448;32.074;2022-10-23T05:07:00;13.60;85.60
52036;DHT22;38046;49.448;32.074;2022-10-23T05:09:26;13.50;85.70
52036;DHT22;38046;49.448;32.074;2022-10-23T05:11:51;13.50;85.70
52036;DHT22;38046;49.448;32.074;2022-10-23T05:14:17;13.50;85.70
52036;DHT22;38046;49.448;32.074;2022-10-23T05:17:03;13.50;85.80
52036;DHT22;38046;49.448;32.074;2022-10-23T05:19:50;13.50;85.80
52036;DHT22;38046;49.448;32.074;2022-10-23T05:22:18;13.50;85.80
52036;DHT22;38046;49.448;32.074;2022-10-23T05:24:45;13.50;86.10
52036;DHT22;38046;49.448;32.074;2022-10-23T05:27:11;13.50;86.20
52036;DHT22;38046;49.448;32.074;2022-10-23T05:29:36;13.50;86.10
52036;DHT22;38046;49.448;32.074;2022-10-23T05:32:04;13.60;86.20
52036;DHT22;38046;49.448;32.074;2022-10-23T05:34:32;13.60;86.10
52036;DHT22;38046;49.448;32.074;2022-10-23T05:37:00;13.50;86.00
52036;DHT22;38046;49.448;32.074;2022-10-23T05:39:26;13.60;85.90
52036;DHT22;38046;49.448;32.074;2022-10-23T05:41:52;13.60;85.90
52036;DHT22;38046;49.448;32.074;2022-10-23T05:44:19;13.60;86.00
52036;DHT22;38046;49.448;32.074;2022-10-23T05:46:46;13.60;86.00
52036;DHT22;38046;49.448;32.074;2022-10-23T05:49:11;13.50;86.00
52036;DHT22;38046;49.448;32.074;2022-10-23T05:51:38;13.50;86.30
52036;DHT22;38046;49.448;32.074;2022-10-23T05:54:05;13.50;86.50
52036;DHT22;38046;49.448;32.074;2022-10-23T05:56:33;13.50;86.40
52036;DHT22;38046;49.448;32.074;2022-10-23T05:58:59;13.50;86.40
52036;DHT22;38046;49.448;32.074;2022-10-23T06:01:25;13.50;86.40
52036;DHT22;38046;49.448;32.074;2022-10-23T06:03:50;13.50;86.60
52036;DHT22;38046;49.448;32.074;2022-10-23T06:06:16;13.50;86.50
52036;DHT22;38046;49.448;32.074;2022-10-23T06:08:41;13.50;86.50
52036;DHT22;38046;49.448;32.074;2022-10-23T06:11:09;13.60;86.60
52036;DHT22;38046;49.448;32.074;2022-10-23T06:13:36;13.60;86.60
52036;DHT22;38046;49.448;32.074;2022-10-23T06:16:13;13.60;86.60
52036;DHT22;38046;49.448;32.074;2022-10-23T06:18:40;13.60;86.60
52036;DHT22;38046;49.448;32.074;2022-10-23T06:21:06;13.60;86.70
52036;DHT22;38046;49.448;32.074;2022-10-23T06:23:33;13.60;86.90
52036;DHT22;38046;49.448;32.074;2022-10-23T06:25:59;13.60;86.80
52036;DHT22;38046;49.448;32.074;2022-10-23T06:28:25;13.60;86.90
52036;DHT22;38046;49.448;32.074;2022-10-23T06:30:50;13.60;86.90
52036;DHT22;38046;49.448;32.074;2022-10-23T06:33:16;13.60;86.90
52036;DHT22;38046;49.448;32.074;2022-10-23T06:35:42;13.60;86.90
52036;DHT22;38046;49.448;32.074;2022-10-23T06:38:08;13.70;87.10
52036;DHT22;38046;49.448;32.074;2022-10-23T06:40:35;13.60;87.00
52036;DHT22;38046;49.448;32.074;2022-10-23T06:43:02;13.70;87.10
52036;DHT22;38046;49.448;32.074;2022-10-23T06:45:28;13.60;87.20
52036;DHT22;38046;49.448;32.074;2022-10-23T06:47:54;13.70;87.20
52036;DHT22;38046;49.448;32.074;2022-10-23T06:50:20;13.60;87.30
52036;DHT22;38046;49.448;32.074;2022-10-23T06:52:46;13.60;87.40
52036;DHT22;38046;49.448;32.074;2022-10-23T06:55:11;13.60;87.50
52036;DHT22;38046;49.448;32.074;2022-10-23T06:57:37;13.60;87.60
52036;DHT22;38046;49.448;32.074;2022-10-23T07:00:03;13.70;87.70
52036;DHT22;38046;49.448;32.074;2022-10-23T07:02:29;13.60;87.70
52036;DHT22;38046;49.448;32.074;2022-10-23T07:04:55;13.60;87.80
52036;DHT22;38046;49.448;32.074;2022-10-23T07:07:20;13.60;87.80
52036;DHT22;38046;49.448;32.074;2022-10-23T07:09:46;13.60;87.70
52036;DHT22;38046;49.448;32.074;2022-10-23T07:12:11;13.60;87.70
52036;DHT22;38046;49.448;32.074;2022-10-23T07:14:37;13.70;87.70
52036;DHT22;38046;49.448;32.074;2022-10-23T07:17:03;13.60;87.60
52036;DHT22;38046;49.448;32.074;2022-10-23T07:19:28;13.60;87.70
52036;DHT22;38046;49.448;32.074;2022-10-23T07:21:54;13.60;87.80
52036;DHT22;38046;49.448;32.074;2022-10-23T07:24:20;13.60;87.80
52036;DHT22;38046;49.448;32.074;2022-10-23T07:26:45;13.60;87.80
52036;DHT22;38046;49.448;32.074;2022-10-23T07:29:11;13.60;87.80
52036;DHT22;38046;49.448;32.074;2022-10-23T07:31:37;13.60;87.90
52036;DHT22;38046;49.448;32.074;2022-10-23T07:34:03;13.60;87.90
52036;DHT22;38046;49.448;32.074;2022-10-23T07:36:29;13.60;88.00
52036;DHT22;38046;49.448;32.074;2022-10-23T07:38:54;13.60;87.90
52036;DHT22;38046;49.448;32.074;2022-10-23T07:41:20;13.60;88.00
52036;DHT22;38046;49.448;32.074;2022-10-23T07:43:46;13.60;88.00
52036;DHT22;38046;49.448;32.074;2022-10-23T07:46:11;13.60;88.00
52036;DHT22;38046;49.448;32.074;2022-10-23T07:48:38;13.60;88.10
52036;DHT22;38046;49.448;32.074;2022-10-23T07:51:07;13.60;88.10
52036;DHT22;38046;49.448;32.074;2022-10-23T07:53:34;13.60;88.10
52036;DHT22;38046;49.448;32.074;2022-10-23T07:56:01;13.60;88.10
52036;DHT22;38046;49.448;32.074;2022-10-23T07:58:28;13.60;88.20
52036;DHT22;38046;49.448;32.074;2022-10-23T08:01:05;13.60;88.20
52036;DHT22;38046;49.448;32.074;2022-10-23T08:03:34;13.60;88.10
52036;DHT22;38046;49.448;32.074;2022-10-23T08:06:00;13.60;88.00
52036;DHT22;38046;49.448;32.074;2022-10-23T08:08:26;13.60;88.00
52036;DHT22;38046;49.448;32.074;2022-10-23T08:10:53;13.60;88.00
52036;DHT22;38046;49.448;32.074;2022-10-23T08:13:20;13.60;88.00
52036;DHT22;38046;49.448;32.074;2022-10-23T08:15:47;13.50;88.00
52036;DHT22;38046;49.448;32.074;2022-10-23T08:18:13;13.60;88.00
52036;DHT22;38046;49.448;32.074;2022-10-23T08:20:41;13.50;87.90
52036;DHT22;38046;49.448;32.074;2022-10-23T08:23:07;13.50;87.80
52036;DHT22;38046;49.448;32.074;2022-10-23T08:25:33;13.50;88.00
52036;DHT22;38046;49.448;32.074;2022-10-23T08:27:59;13.50;88.00
52036;DHT22;38046;49.448;32.074;2022-10-23T08:30:25;13.50;87.80
52036;DHT22;38046;49.448;32.074;2022-10-23T08:32:51;13.50;87.80
52036;DHT22;38046;49.448;32.074;2022-10-23T08:35:17;13.60;87.80
52036;DHT22;38046;49.448;32.074;2022-10-23T08:37:42;13.60;87.80
52036;DHT22;38046;49.448;32.074;2022-10-23T08:40:16;13.60;87.80
52036;DHT22;38046;49.448;32.074;2022-10-23T08:42:49;13.60;87.80
52036;DHT22;38046;49.448;32.074;2022-10-23T08:48:27;13.60;87.80
52036;DHT22;38046;49.448;32.074;2022-10-23T08:51:22;13.60;87.60
52036;DHT22;38046;49.448;32.074;2022-10-23T08:54:04;13.60;87.80
52036;DHT22;38046;49.448;32.074;2022-10-23T08:56:33;13.60;87.80
52036;DHT22;38046;49.448;32.074;2022-10-23T09:02:01;13.60;87.80
52036;DHT22;38046;49.448;32.074;2022-10-23T09:04:28;13.70;87.80
52036;DHT22;38046;49.448;32.074;2022-10-23T09:10:18;13.60;87.80
52036;DHT22;38046;49.448;32.074;2022-10-23T09:12:45;13.70;87.80
52036;DHT22;38046;49.448;32.074;2022-10-23T09:15:58;13.60;88.10
52036;DHT22;38046;49.448;32.074;2022-10-23T09:18:16;13.70;88.00
52036;DHT22;38046;49.448;32.074;2022-10-23T09:20:44;13.70;88.00
52036;DHT22;38046;49.448;32.074;2022-10-23T09:23:18;13.80;87.90
52036;DHT22;38046;49.448;32.074;2022-10-23T09:25:46;13.80;88.00
52036;DHT22;38046;49.448;32.074;2022-10-23T09:30:47;13.80;87.50
52036;DHT22;38046;49.448;32.074;2022-10-23T09:35:56;13.80;87.60
52036;DHT22;38046;49.448;32.074;2022-10-23T09:38:37;13.80;87.80
52036;DHT22;38046;49.448;32.074;2022-10-23T09:44:16;13.90;87.70
52036;DHT22;38046;49.448;32.074;2022-10-23T09:46:48;13.90;87.70
52036;DHT22;38046;49.448;32.074;2022-10-23T09:57:33;14.00;87.60
52036;DHT22;38046;49.448;32.074;2022-10-23T10:00:23;14.10;87.70
52036;DHT22;38046;49.448;32.074;2022-10-23T10:03:05;14.10;87.70
52036;DHT22;38046;49.448;32.074;2022-10-23T10:05:31;14.10;87.70
52036;DHT22;38046;49.448;32.074;2022-10-23T10:08:17;14.20;87.60
52036;DHT22;38046;49.448;32.074;2022-10-23T10:10:50;14.20;87.40
52036;DHT22;38046;49.448;32.074;2022-10-23T10:18:49;14.30;87.00
52036;DHT22;38046;49.448;32.074;2022-10-23T10:21:34;14.30;86.80
52036;DHT22;38046;49.448;32.074;2022-10-23T10:27:39;14.30;86.60
52036;DHT22;38046;49.448;32.074;2022-10-23T10:38:28;14.30;85.70
52036;DHT22;38046;49.448;32.074;2022-10-23T10:47:20;14.00;85.60
52036;DHT22;38046;49.448;32.074;2022-10-23T10:50:05;13.90;86.10
52036;DHT22;38046;49.448;32.074;2022-10-23T11:00:35;13.70;86.80
52036;DHT22;38046;49.448;32.074;2022-10-23T11:03:33;13.70;87.20
52036;DHT22;38046;49.448;32.074;2022-10-23T11:06:02;13.70;87.00
52036;DHT22;38046;49.448;32.074;2022-10-23T11:11:30;13.80;87.30
52036;DHT22;38046;49.448;32.074;2022-10-23T11:13:57;13.80;87.10
52036;DHT22;38046;49.448;32.074;2022-10-23T11:16:29;13.90;87.40
52036;DHT22;38046;49.448;32.074;2022-10-23T11:21:46;13.90;87.00
52036;DHT22;38046;49.448;32.074;2022-10-23T11:38:30;13.90;86.90
52036;DHT22;38046;49.448;32.074;2022-10-23T11:41:00;13.90;87.10
52036;DHT22;38046;49.448;32.074;2022-10-23T11:46:35;13.80;87.10
52036;DHT22;38046;49.448;32.074;2022-10-23T11:49:00;13.80;87.60
52036;DHT22;38046;49.448;32.074;2022-10-23T11:51:45;13.70;87.80
52036;DHT22;38046;49.448;32.074;2022-10-23T11:56:53;13.70;88.30
52036;DHT22;38046;49.448;32.074;2022-10-23T11:59:34;13.70;88.50
52036;DHT22;38046;49.448;32.074;2022-10-23T12:04:50;13.70;88.60
52036;DHT22;38046;49.448;32.074;2022-10-23T12:07:43;13.60;89.00
52036;DHT22;38046;49.448;32.074;2022-10-23T12:10:42;13.60;89.00
52036;DHT22;38046;49.448;32.074;2022-10-23T12:16:03;13.60;89.20
52036;DHT22;38046;49.448;32.074;2022-10-23T12:18:30;13.60;89.60
52036;DHT22;38046;49.448;32.074;2022-10-23T12:21:00;13.60;89.70
52036;DHT22;38046;49.448;32.074;2022-10-23T12:26:58;13.50;89.60
52036;DHT22;38046;49.448;32.074;2022-10-23T12:30:38;13.50;89.70
52036;DHT22;38046;49.448;32.074;2022-10-23T12:38:23;13.40;90.20
52036;DHT22;38046;49.448;32.074;2022-10-23T12:41:39;13.40;90.20
52036;DHT22;38046;49.448;32.074;2022-10-23T12:43:42;13.40;90.20
52036;DHT22;38046;49.448;32.074;2022-10-23T12:48:51;13.40;90.70
52036;DHT22;38046;49.448;32.074;2022-10-23T12:51:33;13.40;90.50
52036;DHT22;38046;49.448;32.074;2022-10-23T12:54:00;13.40;90.50
52036;DHT22;38046;49.448;32.074;2022-10-23T12:56:27;13.40;90.60
52036;DHT22;38046;49.448;32.074;2022-10-23T12:58:58;13.40;90.60
52036;DHT22;38046;49.448;32.074;2022-10-23T13:01:32;13.40;90.60
52036;DHT22;38046;49.448;32.074;2022-10-23T13:06:49;13.40;90.80
52036;DHT22;38046;49.448;32.074;2022-10-23T13:09:29;13.40;90.90
52036;DHT22;38046;49.448;32.074;2022-10-23T13:11:56;13.50;90.90
52036;DHT22;38046;49.448;32.074;2022-10-23T13:14:40;13.50;91.00
52036;DHT22;38046;49.448;32.074;2022-10-23T13:17:09;13.50;90.90
52036;DHT22;38046;49.448;32.074;2022-10-23T13:19:35;13.50;91.00
52036;DHT22;38046;49.448;32.074;2022-10-23T13:22:16;13.50;91.10
52036;DHT22;38046;49.448;32.074;2022-10-23T13:24:43;13.60;91.00
52036;DHT22;38046;49.448;32.074;2022-10-23T13:27:33;13.50;91.10
52036;DHT22;38046;49.448;32.074;2022-10-23T13:29:59;13.60;91.00
52036;DHT22;38046;49.448;32.074;2022-10-23T13:32:28;13.50;91.00
52036;DHT22;38046;49.448;32.074;2022-10-23T13:34:56;13.50;91.10
52036;DHT22;38046;49.448;32.074;2022-10-23T13:37:25;13.60;91.10
52036;DHT22;38046;49.448;32.074;2022-10-23T13:40:06;13.60;91.10
52036;DHT22;38046;49.448;32.074;2022-10-23T13:42:34;13.60;91.00
52036;DHT22;38046;49.448;32.074;2022-10-23T13:45:00;13.60;91.20
52036;DHT22;38046;49.448;32.074;2022-10-23T13:47:26;13.60;91.20
52036;DHT22;38046;49.448;32.074;2022-10-23T13:49:51;13.60;91.20
52036;DHT22;38046;49.448;32.074;2022-10-23T13:52:20;13.70;91.20
52036;DHT22;38046;49.448;32.074;2022-10-23T13:54:47;13.70;91.20
52036;DHT22;38046;49.448;32.074;2022-10-23T13:57:15;13.60;91.20
52036;DHT22;38046;49.448;32.074;2022-10-23T13:59:41;13.70;91.20
52036;DHT22;38046;49.448;32.074;2022-10-23T14:02:20;13.70;91.30
52036;DHT22;38046;49.448;32.074;2022-10-23T14:04:48;13.70;91.30
52036;DHT22;38046;49.448;32.074;2022-10-23T14:07:14;13.70;91.30
52036;DHT22;38046;49.448;32.074;2022-10-23T14:09:40;13.70;91.40
52036;DHT22;38046;49.448;32.074;2022-10-23T14:12:06;13.70;91.40
52036;DHT22;38046;49.448;32.074;2022-10-23T14:14:31;13.70;91.40
52036;DHT22;38046;49.448;32.074;2022-10-23T14:16:58;13.80;91.40
52036;DHT22;38046;49.448;32.074;2022-10-23T14:19:23;13.80;91.30
52036;DHT22;38046;49.448;32.074;2022-10-23T14:21:51;13.80;91.30
52036;DHT22;38046;49.448;32.074;2022-10-23T14:24:17;13.80;91.30
52036;DHT22;38046;49.448;32.074;2022-10-23T14:26:42;13.80;91.20
52036;DHT22;38046;49.448;32.074;2022-10-23T14:29:08;13.80;91.20
52036;DHT22;38046;49.448;32.074;2022-10-23T14:31:34;13.80;91.30
52036;DHT22;38046;49.448;32.074;2022-10-23T14:33:59;13.80;91.30
52036;DHT22;38046;49.448;32.074;2022-10-23T14:36:27;13.70;91.40
52036;DHT22;38046;49.448;32.074;2022-10-23T14:38:57;13.70;91.60
52036;DHT22;38046;49.448;32.074;2022-10-23T14:41:24;13.60;91.70
52036;DHT22;38046;49.448;32.074;2022-10-23T14:43:50;13.60;91.80
52036;DHT22;38046;49.448;32.074;2022-10-23T14:46:18;13.60;91.90
52036;DHT22;38046;49.448;32.074;2022-10-23T14:48:44;13.60;92.00
52036;DHT22;38046;49.448;32.074;2022-10-23T14:51:24;13.60;92.10
52036;DHT22;38046;49.448;32.074;2022-10-23T14:53:55;13.50;92.10
52036;DHT22;38046;49.448;32.074;2022-10-23T14:56:21;13.50;92.20
52036;DHT22;38046;49.448;32.074;2022-10-23T14:58:48;13.50;92.30
52036;DHT22;38046;49.448;32.074;2022-10-23T15:01:13;13.50;92.40
52036;DHT22;38046;49.448;32.074;2022-10-23T15:03:39;13.50;92.50
52036;DHT22;38046;49.448;32.074;2022-10-23T15:06:06;13.50;92.50
52036;DHT22;38046;49.448;32.074;2022-10-23T15:08:32;13.50;92.60
52036;DHT22;38046;49.448;32.074;2022-10-23T15:10:59;13.50;92.70
52036;DHT22;38046;49.448;32.074;2022-10-23T15:13:25;13.40;92.70
52036;DHT22;38046;49.448;32.074;2022-10-23T15:16:03;13.40;92.80
52036;DHT22;38046;49.448;32.074;2022-10-23T15:18:30;13.40;92.80
52036;DHT22;38046;49.448;32.074;2022-10-23T15:20:55;13.40;92.90
52036;DHT22;38046;49.448;32.074;2022-10-23T15:23:21;13.40;92.90
52036;DHT22;38046;49.448;32.074;2022-10-23T15:26:08;13.40;93.00
52036;DHT22;38046;49.448;32.074;2022-10-23T15:28:34;13.40;92.80
52036;DHT22;38046;49.448;32.074;2022-10-23T15:31:00;13.40;93.10
52036;DHT22;38046;49.448;32.074;2022-10-23T15:33:26;13.40;93.10
52036;DHT22;38046;49.448;32.074;2022-10-23T15:35:52;13.40;93.10
52036;DHT22;38046;49.448;32.074;2022-10-23T15:38:19;13.40;93.20
52036;DHT22;38046;49.448;32.074;2022-10-23T15:40:45;13.40;93.20
52036;DHT22;38046;49.448;32.074;2022-10-23T15:43:12;13.40;93.20
52036;DHT22;38046;49.448;32.074;2022-10-23T15:45:38;13.30;93.20
52036;DHT22;38046;49.448;32.074;2022-10-23T15:48:04;13.30;93.50
52036;DHT22;38046;49.448;32.074;2022-10-23T15:50:31;13.30;93.30
52036;DHT22;38046;49.448;32.074;2022-10-23T15:52:56;13.40;93.30
52036;DHT22;38046;49.448;32.074;2022-10-23T15:55:22;13.40;93.30
52036;DHT22;38046;49.448;32.074;2022-10-23T15:57:48;13.30;93.20
52036;DHT22;38046;49.448;32.074;2022-10-23T16:00:14;13.30;93.20
52036;DHT22;38046;49.448;32.074;2022-10-23T16:02:40;13.30;93.10
52036;DHT22;38046;49.448;32.074;2022-10-23T16:05:06;13.30;92.90
52036;DHT22;38046;49.448;32.074;2022-10-23T16:07:32;13.30;92.80
52036;DHT22;38046;49.448;32.074;2022-10-23T16:09:58;13.30;92.80
52036;DHT22;38046;49.448;32.074;2022-10-23T16:12:24;13.20;92.70
52036;DHT22;38046;49.448;32.074;2022-10-23T16:14:49;13.20;92.70
52036;DHT22;38046;49.448;32.074;2022-10-23T16:17:16;13.20;92.60
52036;DHT22;38046;49.448;32.074;2022-10-23T16:19:43;13.20;92.50
52036;DHT22;38046;49.448;32.074;2022-10-23T16:22:09;13.20;92.50
52036;DHT22;38046;49.448;32.074;2022-10-23T16:24:35;13.20;92.30
52036;DHT22;38046;49.448;32.074;2022-10-23T16:27:00;13.20;92.20
52036;DHT22;38046;49.448;32.074;2022-10-23T16:29:26;13.20;92.40
52036;DHT22;38046;49.448;32.074;2022-10-23T16:31:54;13.10;92.00
52036;DHT22;38046;49.448;32.074;2022-10-23T16:34:20;13.10;91.90
52036;DHT22;38046;49.448;32.074;2022-10-23T16:36:47;13.10;91.70
52036;DHT22;38046;49.448;32.074;2022-10-23T16:39:15;13.10;91.60
52036;DHT22;38046;49.448;32.074;2022-10-23T16:41:41;13.10;91.50
52036;DHT22;38046;49.448;32.074;2022-10-23T16:44:06;13.00;91.30
52036;DHT22;38046;49.448;32.074;2022-10-23T16:46:32;13.00;91.40
52036;DHT22;38046;49.448;32.074;2022-10-23T16:49:00;13.00;91.40
52036;DHT22;38046;49.448;32.074;2022-10-23T16:51:28;13.00;91.50
52036;DHT22;38046;49.448;32.074;2022-10-23T16:53:56;13.00;91.60
52036;DHT22;38046;49.448;32.074;2022-10-23T16:56:24;13.00;91.70
52036;DHT22;38046;49.448;32.074;2022-10-23T16:58:53;13.00;91.70
52036;DHT22;38046;49.448;32.074;2022-10-23T17:01:21;13.00;91.70
52036;DHT22;38046;49.448;32.074;2022-10-23T17:03:48;13.00;91.80
52036;DHT22;38046;49.448;32.074;2022-10-23T17:06:18;13.00;91.80
52036;DHT22;38046;49.448;32.074;2022-10-23T17:08:44;13.00;91.70
52036;DHT22;38046;49.448;32.074;2022-10-23T17:13:41;13.00;91.80
52036;DHT22;38046;49.448;32.074;2022-10-23T17:16:10;13.00;91.80
52036;DHT22;38046;49.448;32.074;2022-10-23T17:18:37;13.00;91.70
52036;DHT22;38046;49.448;32.074;2022-10-23T17:21:03;13.00;91.70
52036;DHT22;38046;49.448;32.074;2022-10-23T17:23:29;12.90;91.50
52036;DHT22;38046;49.448;32.074;2022-10-23T17:25:55;12.90;91.50
52036;DHT22;38046;49.448;32.074;2022-10-23T17:28:23;13.00;91.40
52036;DHT22;38046;49.448;32.074;2022-10-23T17:30:49;12.90;91.40
52036;DHT22;38046;49.448;32.074;2022-10-23T17:33:15;12.90;91.30
52036;DHT22;38046;49.448;32.074;2022-10-23T17:35:41;12.90;91.30
52036;DHT22;38046;49.448;32.074;2022-10-23T17:38:06;12.90;91.30
52036;DHT22;38046;49.448;32.074;2022-10-23T17:40:32;12.90;91.30
52036;DHT22;38046;49.448;32.074;2022-10-23T17:42:59;12.90;91.20